createdAt,value
2024-02-04T07:38:56.178Z,5.94
2024-02-04T07:41:23.185Z,5.92
2024-02-04T07:43:50.166Z,5.83
2024-02-04T07:46:16.901Z,5.97
2024-02-04T07:48:43.880Z,5.99
2024-02-04T07:51:10.733Z,5.99
2024-02-04T07:53:37.650Z,5.95
2024-02-04T07:56:05.570Z,6.04
2024-02-04T07:58:32.371Z,5.91
2024-02-04T08:00:59.216Z,5.99
2024-02-04T08:03:26.104Z,6.03
2024-02-04T08:05:53.159Z,6.04
2024-02-04T08:08:20.325Z,6.05
2024-02-04T08:10:47.118Z,6.02
2024-02-04T08:13:14.269Z,5.99
2024-02-04T08:15:41.509Z,5.98
2024-02-04T08:18:08.802Z,6.08
2024-02-04T08:20:35.843Z,6.17
2024-02-04T08:23:02.692Z,6.22
2024-02-04T08:25:29.420Z,6.21
2024-02-04T08:27:59.209Z,6.23
2024-02-04T08:30:26.597Z,6.34
2024-02-04T08:32:53.589Z,6.39
2024-02-04T08:35:20.400Z,6.57
2024-02-04T08:37:47.048Z,6.54
2024-02-04T08:40:14.436Z,6.49
2024-02-04T08:42:41.507Z,6.56
2024-02-04T08:45:08.750Z,6.68
2024-02-04T08:47:35.568Z,6.64
2024-02-04T08:50:02.454Z,6.81
2024-02-04T08:52:29.633Z,6.88
2024-02-04T08:54:56.428Z,6.98
2024-02-04T08:57:23.195Z,6.94
2024-02-04T08:59:49.911Z,6.88
2024-02-04T09:02:16.537Z,6.95
2024-02-04T09:04:43.319Z,6.88
2024-02-04T09:07:10.228Z,6.99
2024-02-04T09:09:37.237Z,7.15
2024-02-04T09:12:04.197Z,7.21
2024-02-04T09:14:31.068Z,7.18
2024-02-04T09:16:57.848Z,7.21
2024-02-04T09:19:25.700Z,7.12
2024-02-04T09:21:57.158Z,7.17
2024-02-04T09:24:23.937Z,7.15
2024-02-04T09:26:50.606Z,7.16
2024-02-04T09:29:17.580Z,7.22
2024-02-04T09:31:44.408Z,7.23
2024-02-04T09:34:11.469Z,7.27
2024-02-04T09:36:38.419Z,7.26
2024-02-04T09:39:05.309Z,7.37
2024-02-04T09:41:32.005Z,7.29
2024-02-04T09:43:59.571Z,7.35
2024-02-04T09:46:26.522Z,7.48
2024-02-04T09:48:56.360Z,7.57
2024-02-04T09:51:23.874Z,7.58
2024-02-04T09:53:54.815Z,7.47
2024-02-04T09:56:26.596Z,7.65
2024-02-04T09:58:54.340Z,7.55
2024-02-04T10:01:23.873Z,7.64
2024-02-04T10:03:50.976Z,7.54
2024-02-04T10:06:18.143Z,7.77
2024-02-04T10:08:45.219Z,7.70
2024-02-04T10:11:12.190Z,7.76
2024-02-04T10:13:50.616Z,7.76
2024-02-04T10:16:18.297Z,7.87
2024-02-04T10:18:46.131Z,7.85
2024-02-04T10:21:20.683Z,7.70
2024-02-04T10:23:51.326Z,7.72
2024-02-04T10:26:21.012Z,7.80
2024-02-04T10:28:48.860Z,7.86
2024-02-04T10:31:16.388Z,7.84
2024-02-04T10:33:43.364Z,8.03
2024-02-04T10:36:10.613Z,8.00
2024-02-04T10:38:37.264Z,7.97
2024-02-04T10:41:04.244Z,8.09
2024-02-04T10:43:36.450Z,8.12
2024-02-04T10:46:11.858Z,8.31
2024-02-04T10:48:46.135Z,8.21
2024-02-04T10:51:17.274Z,8.22
2024-02-04T10:53:45.340Z,8.17
2024-02-04T10:56:24.306Z,8.27
2024-02-04T10:58:53.013Z,8.22
2024-02-04T11:01:19.965Z,8.45
2024-02-04T11:03:48.405Z,8.34
2024-02-04T11:06:14.987Z,8.48
2024-02-04T11:08:42.083Z,8.48
2024-02-04T11:11:08.774Z,8.62
2024-02-04T11:13:37.850Z,8.59
2024-02-04T11:16:11.093Z,8.59
2024-02-04T11:18:59.619Z,8.57
2024-02-04T11:21:45.676Z,8.63
2024-02-04T11:24:43.543Z,8.64
2024-02-04T11:27:10.709Z,8.59
2024-02-04T11:29:37.609Z,8.61
2024-02-04T11:32:04.960Z,8.48
2024-02-04T11:34:32.091Z,8.49
2024-02-04T11:37:00.325Z,8.41
2024-02-04T11:39:27.829Z,8.44
2024-02-04T11:41:55.049Z,8.40
2024-02-04T11:44:26.267Z,8.45
2024-02-04T11:46:53.699Z,8.54
2024-02-04T11:49:23.379Z,8.50
2024-02-04T11:51:52.783Z,8.48
2024-02-04T11:54:21.791Z,8.49
2024-02-04T11:56:55.106Z,8.48
2024-02-04T11:59:23.836Z,8.58
2024-02-04T12:01:54.975Z,8.44
2024-02-04T12:04:23.015Z,8.41
2024-02-04T12:06:51.677Z,8.49
2024-02-04T12:09:23.516Z,8.37
2024-02-04T12:11:50.309Z,8.47
2024-02-04T12:14:19.764Z,8.39
2024-02-04T12:16:46.661Z,8.40
2024-02-04T12:19:13.421Z,8.48
2024-02-04T12:21:40.518Z,8.41
2024-02-04T12:24:08.146Z,8.49
2024-02-04T12:26:35.112Z,8.59
2024-02-04T12:29:01.880Z,8.41
2024-02-04T12:31:32.800Z,8.47
2024-02-04T12:34:02.935Z,8.44
2024-02-04T12:36:31.880Z,8.38
2024-02-04T12:38:59.221Z,8.48
2024-02-04T12:41:26.970Z,8.51
2024-02-04T12:43:56.782Z,8.45
2024-02-04T12:46:24.046Z,8.41
2024-02-04T12:48:55.258Z,8.44
2024-02-04T12:51:30.099Z,8.39
2024-02-04T12:54:14.137Z,8.42
2024-02-04T12:56:47.822Z,8.29
2024-02-04T12:59:35.613Z,8.31
2024-02-04T13:02:06.045Z,8.32
2024-02-04T13:04:36.865Z,8.32
2024-02-04T13:07:08.255Z,8.34
2024-02-04T13:09:35.080Z,8.30
2024-02-04T13:12:11.416Z,8.13
2024-02-04T13:14:39.012Z,8.15
2024-02-04T13:17:06.871Z,8.21
2024-02-04T13:19:38.242Z,8.28
2024-02-04T13:22:06.309Z,8.22
2024-02-04T13:24:33.925Z,8.19
2024-02-04T13:27:01.914Z,8.21
2024-02-04T13:29:29.078Z,8.27
2024-02-04T13:31:56.914Z,8.31
2024-02-04T13:34:24.167Z,8.36
2024-02-04T13:36:52.428Z,8.31
2024-02-04T13:39:19.303Z,8.25
2024-02-04T13:41:46.222Z,8.14
2024-02-04T13:44:13.040Z,8.25
2024-02-04T13:46:43.963Z,8.15
2024-02-04T13:49:13.431Z,8.21
2024-02-04T13:51:44.657Z,8.23
2024-02-04T13:54:16.638Z,8.26
2024-02-04T13:56:44.210Z,8.36
2024-02-04T13:59:10.906Z,8.47
2024-02-04T14:01:37.651Z,8.53
2024-02-04T14:04:04.779Z,8.55
2024-02-04T14:06:31.553Z,8.58
2024-02-04T14:08:58.258Z,8.52
2024-02-04T14:11:24.871Z,8.52
2024-02-04T14:13:51.518Z,8.55
2024-02-04T14:16:18.319Z,8.57
2024-02-04T14:18:47.461Z,8.59
2024-02-04T14:21:17.567Z,8.65
2024-02-04T14:23:44.554Z,8.64
2024-02-04T14:26:21.742Z,8.64
2024-02-04T14:28:49.480Z,8.64
2024-02-04T14:31:16.354Z,8.53
2024-02-04T14:33:43.771Z,8.47
2024-02-04T14:36:11.411Z,8.52
2024-02-04T14:38:39.974Z,8.44
2024-02-04T14:41:07.133Z,8.41
2024-02-04T14:43:34.554Z,8.42
2024-02-04T14:46:01.461Z,8.39
2024-02-04T14:48:28.632Z,8.28
2024-02-04T14:50:57.635Z,8.23
2024-02-04T14:53:24.342Z,8.27
2024-02-04T14:55:51.053Z,8.28
2024-02-04T14:58:17.827Z,8.22
2024-02-04T15:00:44.772Z,8.18
2024-02-04T15:03:11.944Z,8.15
2024-02-04T15:05:40.162Z,8.21
2024-02-04T15:08:07.337Z,8.15
2024-02-04T15:10:34.188Z,8.19
2024-02-04T15:13:01.553Z,8.07
2024-02-04T15:15:28.697Z,8.15
2024-02-04T15:17:55.700Z,8.08
2024-02-04T15:20:25.562Z,8.15
2024-02-04T15:22:52.790Z,8.14
2024-02-04T15:25:21.282Z,8.08
2024-02-04T15:27:49.327Z,8.09
2024-02-04T15:30:17.832Z,7.99
2024-02-04T15:32:45.854Z,8.13
2024-02-04T15:35:13.605Z,7.99
2024-02-04T15:37:40.456Z,8.08
2024-02-04T15:40:07.718Z,8.10
2024-02-04T15:42:34.949Z,8.08
2024-02-04T15:45:01.688Z,8.09
2024-02-04T15:47:31.132Z,7.95
2024-02-04T15:49:58.068Z,8.01
2024-02-04T15:52:25.193Z,7.98
2024-02-04T15:54:52.728Z,8.07
2024-02-04T15:57:21.491Z,8.05
2024-02-04T15:59:53.978Z,7.91
2024-02-04T16:02:21.025Z,7.99
2024-02-04T16:04:47.809Z,7.98
2024-02-04T16:07:16.337Z,7.88
2024-02-04T16:09:46.666Z,8.01
2024-02-04T16:12:21.662Z,8.00
2024-02-04T16:14:52.161Z,7.90
2024-02-04T16:17:22.208Z,7.90
2024-02-04T16:19:50.511Z,7.92
2024-02-04T16:22:18.538Z,8.01
2024-02-04T16:24:45.760Z,7.91
2024-02-04T16:27:12.629Z,7.90
2024-02-04T16:29:39.307Z,7.98
2024-02-04T16:32:05.978Z,7.85
2024-02-04T16:34:35.823Z,7.97
2024-02-04T16:37:03.741Z,7.95
2024-02-04T16:39:30.676Z,8.01
2024-02-04T16:41:57.316Z,7.95
2024-02-04T16:44:24.434Z,7.97
2024-02-04T16:46:51.183Z,7.95
2024-02-04T16:49:20.623Z,7.95
2024-02-04T16:51:48.193Z,8.07
2024-02-04T16:54:16.432Z,8.02
2024-02-04T16:56:43.186Z,8.03
2024-02-04T16:59:10.489Z,7.97
2024-02-04T17:01:37.377Z,8.09
2024-02-04T17:04:05.510Z,7.96
2024-02-04T17:06:32.816Z,8.03
2024-02-04T17:09:02.722Z,8.09
2024-02-04T17:11:30.397Z,8.04
2024-02-04T17:13:58.036Z,8.11
2024-02-04T17:16:39.968Z,8.15
2024-02-04T17:19:34.492Z,8.19
2024-02-04T17:22:16.073Z,8.15
2024-02-04T17:24:51.154Z,8.26
2024-02-04T17:27:19.761Z,8.11
2024-02-04T17:29:47.157Z,8.22
2024-02-04T17:32:15.363Z,8.20
2024-02-04T17:34:42.938Z,8.13
2024-02-04T17:37:10.313Z,8.14
2024-02-04T17:39:38.771Z,8.22
2024-02-04T17:42:06.891Z,8.27
2024-02-04T17:44:34.941Z,8.28
2024-02-04T17:47:02.686Z,8.18
2024-02-04T17:49:29.545Z,8.23
2024-02-04T17:51:56.501Z,8.35
2024-02-04T17:54:31.295Z,8.28
2024-02-04T17:57:10.347Z,8.34
2024-02-04T18:00:03.161Z,8.25
2024-02-04T18:02:41.769Z,8.26
2024-02-04T18:05:13.711Z,8.23
2024-02-04T18:07:42.596Z,8.31
2024-02-04T18:10:09.823Z,8.46
2024-02-04T18:12:36.841Z,8.36
2024-02-04T18:15:06.304Z,8.39
2024-02-04T18:17:34.332Z,8.39
2024-02-04T18:23:16.448Z,8.49
2024-02-04T18:25:50.719Z,8.26
2024-02-04T18:28:17.381Z,8.44
2024-02-04T18:30:45.396Z,8.39
2024-02-04T18:33:12.152Z,8.49
2024-02-04T18:35:39.643Z,8.43
2024-02-04T18:42:39.916Z,8.27
2024-02-04T18:45:07.660Z,8.40
2024-02-04T18:47:34.492Z,8.36
2024-02-04T18:50:03.037Z,8.25
2024-02-04T18:52:59.978Z,8.39
2024-02-04T18:55:29.713Z,8.26
2024-02-04T19:03:49.692Z,8.24
2024-02-04T19:06:29.983Z,8.32
2024-02-04T19:08:56.788Z,8.26
2024-02-04T19:11:23.568Z,8.23
2024-02-04T19:13:51.139Z,8.31
2024-02-04T19:16:24.846Z,8.22
2024-02-04T19:18:52.186Z,8.14
2024-02-04T19:21:19.403Z,8.13
2024-02-04T19:23:49.115Z,8.17
2024-02-04T19:26:16.535Z,8.10
2024-02-04T19:28:43.174Z,8.18
2024-02-04T19:31:13.241Z,8.19
2024-02-04T19:33:40.716Z,8.22
2024-02-04T19:36:08.346Z,8.15
2024-02-04T19:38:35.965Z,8.15
2024-02-04T19:41:02.803Z,8.27
2024-02-04T19:43:32.319Z,8.22
2024-02-04T19:45:59.787Z,8.28
2024-02-04T19:48:27.612Z,8.28
2024-02-04T19:50:54.594Z,8.29
2024-02-04T19:53:21.402Z,8.36
2024-02-04T19:55:48.248Z,8.25
2024-02-04T19:58:35.472Z,8.29
2024-02-04T20:01:02.190Z,8.23
2024-02-04T20:03:29.057Z,8.27
2024-02-04T20:06:03.271Z,8.25
2024-02-04T20:08:32.241Z,8.35
2024-02-04T20:10:58.949Z,8.38
2024-02-04T20:13:27.941Z,8.40
2024-02-04T20:15:55.618Z,8.42
2024-02-04T20:18:22.297Z,8.43
2024-02-04T20:20:49.261Z,8.32
2024-02-04T20:23:16.798Z,8.35
2024-02-04T20:25:44.493Z,8.38
2024-02-04T20:28:12.215Z,8.38
2024-02-04T20:30:39.136Z,8.32
2024-02-04T20:33:06.013Z,8.44
2024-02-04T20:35:32.811Z,8.29
2024-02-04T20:38:02.608Z,8.32
2024-02-04T20:40:29.713Z,8.41
2024-02-04T20:42:56.619Z,8.26
2024-02-04T20:45:23.460Z,8.24
2024-02-04T20:47:50.614Z,8.24
2024-02-04T20:50:18.145Z,8.26
2024-02-04T20:52:45.495Z,8.32
2024-02-04T20:55:13.152Z,8.31
2024-02-04T20:57:40.509Z,8.29
2024-02-04T21:00:08.568Z,8.27
2024-02-04T21:02:35.810Z,8.27
2024-02-04T21:05:02.837Z,8.38
2024-02-04T21:07:29.928Z,8.25
2024-02-04T21:09:59.111Z,8.30
2024-02-04T21:12:25.953Z,8.33
2024-02-04T21:14:52.694Z,8.32
2024-02-04T21:17:21.510Z,8.31
2024-02-04T21:19:50.686Z,8.21
2024-02-04T21:22:17.666Z,8.22
2024-02-04T21:24:45.534Z,8.28
2024-02-04T21:27:12.552Z,8.32
2024-02-04T21:29:39.637Z,8.29
2024-02-04T21:32:06.828Z,8.27
2024-02-04T21:34:34.994Z,8.29
2024-02-04T21:37:01.785Z,8.26
2024-02-04T21:39:30.982Z,8.27
2024-02-04T21:42:02.654Z,8.23
2024-02-04T21:44:29.411Z,8.26
2024-02-04T21:46:56.658Z,8.23
2024-02-04T21:49:23.564Z,8.24
2024-02-04T21:51:51.294Z,8.25
2024-02-04T21:54:17.948Z,8.17
2024-02-04T21:56:44.630Z,8.16
2024-02-04T21:59:11.776Z,8.18
2024-02-04T22:01:38.598Z,8.23
2024-02-04T22:04:05.465Z,8.19
2024-02-04T22:06:32.205Z,8.16
2024-02-04T22:08:58.831Z,8.23
2024-02-04T22:11:27.894Z,8.14
2024-02-04T22:13:55.314Z,8.16
2024-02-04T22:16:22.196Z,8.17
2024-02-04T22:18:49.038Z,8.13
2024-02-04T22:21:20.653Z,8.21
2024-02-04T22:23:47.789Z,8.12
2024-02-04T22:26:14.857Z,8.11
2024-02-04T22:28:41.497Z,8.19
2024-02-04T22:31:11.559Z,8.10
2024-02-04T22:33:38.570Z,8.11
2024-02-04T22:36:06.056Z,8.10
2024-02-04T22:38:34.044Z,8.04
2024-02-04T22:41:01.167Z,8.10
2024-02-04T22:43:28.346Z,8.11
2024-02-04T22:45:55.338Z,8.10
2024-02-04T22:48:22.291Z,8.03
2024-02-04T22:50:49.297Z,7.98
2024-02-04T22:53:16.265Z,8.03
2024-02-04T22:55:43.058Z,8.10
2024-02-04T22:58:09.928Z,8.09
2024-02-04T23:00:39.708Z,8.12
2024-02-04T23:03:07.320Z,8.09
2024-02-04T23:05:34.129Z,8.08
2024-02-04T23:08:01.049Z,8.05
2024-02-04T23:10:30.521Z,8.04
2024-02-04T23:12:58.325Z,8.04
2024-02-04T23:15:26.011Z,8.03
2024-02-04T23:17:53.165Z,8.01
2024-02-04T23:20:21.240Z,8.07
2024-02-04T23:22:48.323Z,8.05
2024-02-04T23:25:15.486Z,7.95
2024-02-04T23:27:42.298Z,7.95
2024-02-04T23:30:09.954Z,7.86
2024-02-04T23:32:36.623Z,7.85
2024-02-04T23:35:05.323Z,7.80
2024-02-04T23:37:34.867Z,7.76
2024-02-04T23:40:02.099Z,7.89
2024-02-04T23:42:29.021Z,7.90
2024-02-04T23:44:56.150Z,7.76
2024-02-04T23:47:22.978Z,7.73
2024-02-04T23:49:49.989Z,7.76
2024-02-04T23:52:18.489Z,7.78
2024-02-04T23:54:45.529Z,7.78
2024-02-04T23:57:12.284Z,7.65
2024-02-04T23:59:39.109Z,7.77
